Time;durP1;ratioP1;P1;durP2;ratioP2;P2;SDS_P1;SDS_P2;PMS_P1;PMS_P2;Temp;Humidity;BMP_temperature;BMP_pressure;BME280_temperature;BME280_humidity;BME280_pressure;Samples;Min_cycle;Max_cycle;Signal;HPM_P1;HPM_P2
2023/05/21 00:01:44;;;;;;;4.63;2.35;;;17.70;42.50;;;;;;5027840;28;20407;-72
2023/05/21 00:04:11;;;;;;;4.35;1.80;;;17.60;42.50;;;;;;5034345;28;20029;-74
2023/05/21 00:06:38;;;;;;;3.10;2.35;;;17.50;42.30;;;;;;5035327;28;20083;-74
2023/05/21 00:09:05;;;;;;;2.97;1.85;;;17.50;42.40;;;;;;5035143;28;20041;-71
2023/05/21 00:11:34;;;;;;;4.03;2.35;;;17.50;42.60;;;;;;5036436;28;20105;-71
2023/05/21 00:14:00;;;;;;;3.25;2.53;;;17.40;42.50;;;;;;5016981;28;20507;-70
2023/05/21 00:16:27;;;;;;;2.17;1.98;;;17.40;42.60;;;;;;5030640;28;20127;-70
2023/05/21 00:18:53;;;;;;;2.65;1.70;;;17.30;42.50;;;;;;5034058;28;20037;-70
2023/05/21 00:21:24;;;;;;;3.25;2.20;;;17.30;42.60;;;;;;5027649;28;20033;-70
2023/05/21 00:23:55;;;;;;;3.17;2.15;;;17.20;42.50;;;;;;5027198;28;20044;-69
2023/05/21 00:26:22;;;;;;;2.38;2.15;;;17.20;42.60;;;;;;5033587;28;20330;-71
2023/05/21 00:28:55;;;;;;;2.47;2.20;;;17.20;42.70;;;;;;5033667;28;20078;-71
2023/05/21 00:31:24;;;;;;;2.42;2.10;;;17.10;42.60;;;;;;5033710;28;20041;-70
2023/05/21 00:33:53;;;;;;;4.18;2.05;;;17.10;42.70;;;;;;5036032;28;20033;-68
2023/05/21 00:36:26;;;;;;;3.42;1.98;;;17.10;42.70;;;;;;5027030;28;20087;-68
2023/05/21 00:39:12;;;;;;;2.17;1.67;;;17.00;42.60;;;;;;5028391;28;20037;-69
2023/05/21 00:41:39;;;;;;;2.83;2.42;;;16.90;42.60;;;;;;5004125;28;20048;-69
2023/05/21 00:44:08;;;;;;;3.22;1.90;;;16.90;42.60;;;;;;5039930;28;20082;-69
2023/05/21 00:46:35;;;;;;;2.78;2.00;;;16.90;42.70;;;;;;5035225;28;20041;-70
2023/05/21 00:49:06;;;;;;;2.65;2.10;;;16.80;42.70;;;;;;5018256;28;20150;-68
2023/05/21 00:51:38;;;;;;;4.95;1.92;;;16.80;42.80;;;;;;5020180;28;20082;-69
2023/05/21 00:54:04;;;;;;;2.22;2.00;;;16.70;42.70;;;;;;5015471;28;20033;-69
2023/05/21 00:56:34;;;;;;;2.63;1.75;;;16.70;42.90;;;;;;5032618;28;20064;-70
2023/05/21 00:59:04;;;;;;;3.20;2.40;;;16.60;42.80;;;;;;5027830;28;20080;-69
2023/05/21 01:01:35;;;;;;;3.63;2.30;;;16.60;42.90;;;;;;5029805;28;20032;-70
2023/05/21 01:04:01;;;;;;;6.18;2.50;;;16.60;43.00;;;;;;5027936;28;20050;-70
2023/05/21 01:06:28;;;;;;;3.03;2.72;;;16.50;42.90;;;;;;5015973;28;20060;-69
2023/05/21 01:08:55;;;;;;;2.38;2.13;;;16.40;42.70;;;;;;5013318;28;20037;-70
2023/05/21 01:11:32;;;;;;;3.25;2.40;;;16.40;42.80;;;;;;5033096;28;20140;-70
2023/05/21 01:13:59;;;;;;;3.22;2.47;;;16.30;42.80;;;;;;5025258;28;20025;-68
2023/05/21 01:16:31;;;;;;;3.30;2.47;;;16.30;42.80;;;;;;5031353;28;20028;-70
2023/05/21 01:18:58;;;;;;;3.83;2.42;;;16.20;42.70;;;;;;5021336;28;20557;-71
2023/05/21 01:21:27;;;;;;;3.05;1.95;;;16.20;42.80;;;;;;5022993;28;20120;-69
2023/05/21 01:23:53;;;;;;;4.28;1.77;;;16.10;42.80;;;;;;5025830;28;20048;-69
2023/05/21 01:26:19;;;;;;;4.10;2.10;;;16.10;42.90;;;;;;5015773;28;20120;-68
2023/05/21 01:28:47;;;;;;;3.17;2.17;;;16.10;43.00;;;;;;5032650;28;20029;-69
2023/05/21 01:31:27;;;;;;;2.28;2.05;;;16.00;42.90;;;;;;5035427;22;20068;-70
2023/05/21 01:34:01;;;;;;;3.33;2.10;;;15.90;42.90;;;;;;4997249;28;20529;-71
2023/05/21 01:36:36;;;;;;;2.78;2.58;;;15.90;42.90;;;;;;4992843;28;20065;-71
2023/05/21 01:39:20;;;;;;;2.25;2.03;;;15.90;43.10;;;;;;4998713;28;20056;-72
2023/05/21 01:41:53;;;;;;;3.85;2.13;;;15.80;43.00;;;;;;4994552;28;20077;-72
2023/05/21 01:44:26;;;;;;;3.88;2.50;;;15.70;42.90;;;;;;5002722;28;20135;-72
2023/05/21 01:46:57;;;;;;;4.10;2.50;;;15.70;43.60;;;;;;5017616;23;20521;-87
2023/05/21 01:49:27;;;;;;;4.25;2.10;;;15.60;42.90;;;;;;5010000;28;20038;-87
2023/05/21 01:51:53;;;;;;;2.42;2.10;;;15.60;43.00;;;;;;5006586;28;20045;-87
2023/05/21 01:54:20;;;;;;;3.20;2.33;;;15.50;43.00;;;;;;5002163;28;20053;-87
2023/05/21 01:56:48;;;;;;;3.25;2.25;;;15.50;43.10;;;;;;4993279;28;20038;-87
2023/05/21 01:59:17;;;;;;;3.47;2.60;;;15.50;43.20;;;;;;5008442;28;20076;-87
2023/05/21 02:01:43;;;;;;;3.35;2.33;;;15.40;43.00;;;;;;5006114;28;20034;-85
2023/05/21 02:04:10;;;;;;;2.60;2.13;;;15.40;43.10;;;;;;5007659;28;20624;-87
2023/05/21 02:06:45;;;;;;;2.35;1.95;;;15.40;43.20;;;;;;5006762;28;20510;-85
2023/05/21 02:09:11;;;;;;;2.88;2.40;;;15.30;43.00;;;;;;4998126;28;20477;-86
2023/05/21 02:11:37;;;;;;;2.40;1.83;;;15.30;43.10;;;;;;5008999;28;20552;-85
2023/05/21 02:14:04;;;;;;;2.95;2.25;;;15.30;43.20;;;;;;5008505;28;20061;-85
2023/05/21 02:16:30;;;;;;;3.67;2.35;;;15.30;43.20;;;;;;5005416;28;20100;-84
2023/05/21 02:18:59;;;;;;;4.32;2.45;;;15.20;43.10;;;;;;5007554;28;20033;-86
2023/05/21 02:21:27;;;;;;;2.92;2.22;;;15.20;43.20;;;;;;4998862;28;20139;-85
2023/05/21 02:23:54;;;;;;;3.03;2.03;;;15.20;43.20;;;;;;5005923;28;20088;-85
2023/05/21 02:26:21;;;;;;;3.17;2.40;;;15.10;43.20;;;;;;5008680;28;20041;-85
2023/05/21 02:28:47;;;;;;;4.47;1.90;;;15.10;43.20;;;;;;5008337;28;20079;-85
2023/05/21 02:31:13;;;;;;;4.03;2.72;;;15.10;43.30;;;;;;5003152;28;20088;-83
2023/05/21 02:33:40;;;;;;;2.80;2.47;;;15.00;43.20;;;;;;5004503;28;20044;-86
2023/05/21 02:36:11;;;;;;;4.53;2.33;;;15.00;43.30;;;;;;5009589;28;20091;-86
2023/05/21 02:38:42;;;;;;;3.58;2.72;;;14.90;43.20;;;;;;5006709;28;20064;-86
2023/05/21 02:41:11;;;;;;;2.42;2.22;;;14.80;43.10;;;;;;5007579;28;20158;-86
2023/05/21 02:43:37;;;;;;;4.57;2.90;;;14.80;43.20;;;;;;5006979;28;20173;-88
2023/05/21 02:46:05;;;;;;;1.83;1.70;;;14.70;43.10;;;;;;5011392;28;20064;-89
2023/05/21 02:48:31;;;;;;;2.72;2.28;;;14.70;43.20;;;;;;5010370;28;20034;-86
2023/05/21 02:50:58;;;;;;;5.25;2.38;;;14.70;43.30;;;;;;5002426;28;20359;-87
2023/05/21 02:53:24;;;;;;;4.10;2.20;;;14.60;43.20;;;;;;5004930;28;20521;-86
2023/05/21 02:55:50;;;;;;;3.22;1.75;;;14.60;43.40;;;;;;5007591;28;20037;-86
2023/05/21 02:58:17;;;;;;;3.60;2.20;;;14.60;43.40;;;;;;4999060;28;20030;-84
2023/05/21 03:00:43;;;;;;;3.33;2.20;;;14.50;43.30;;;;;;5005088;28;20141;-86
2023/05/21 03:03:10;;;;;;;5.15;2.33;;;14.50;43.30;;;;;;5015717;28;20296;-86
2023/05/21 03:05:36;;;;;;;6.05;2.50;;;14.50;43.40;;;;;;5023481;28;20065;-86
2023/05/21 03:08:02;;;;;;;4.03;2.55;;;14.40;43.20;;;;;;5008140;28;20384;-86
2023/05/21 03:10:28;;;;;;;3.28;2.25;;;14.40;43.30;;;;;;5005971;28;20084;-85
2023/05/21 03:12:55;;;;;;;4.07;2.47;;;14.50;43.60;;;;;;5006172;28;20342;-86
2023/05/21 03:15:24;;;;;;;5.82;2.40;;;14.40;43.40;;;;;;5006234;28;20092;-86
2023/05/21 03:17:52;;;;;;;4.82;1.83;;;14.40;43.40;;;;;;5007439;28;20033;-86
2023/05/21 03:20:19;;;;;;;3.20;2.90;;;14.30;43.30;;;;;;5004579;28;20046;-87
2023/05/21 03:22:45;;;;;;;2.45;2.17;;;14.30;43.30;;;;;;4985683;28;20030;-87
2023/05/21 03:25:11;;;;;;;2.75;2.10;;;14.30;43.40;;;;;;5023494;28;20045;-87
2023/05/21 03:27:38;;;;;;;2.45;1.83;;;14.30;43.50;;;;;;5006696;28;20038;-86
2023/05/21 03:30:11;;;;;;;4.43;2.47;;;14.30;43.50;;;;;;5003882;28;20527;-85
2023/05/21 03:32:55;;;;;;;3.10;2.17;;;14.20;43.40;;;;;;5004408;28;20038;-85
2023/05/21 03:35:21;;;;;;;2.90;2.08;;;14.20;43.40;;;;;;5006912;28;20084;-88
2023/05/21 03:37:47;;;;;;;3.15;1.77;;;14.20;43.40;;;;;;5002013;28;20037;-87
2023/05/21 03:40:14;;;;;;;3.72;2.10;;;14.20;43.50;;;;;;5007015;28;20042;-87
2023/05/21 03:42:41;;;;;;;3.10;2.78;;;14.10;43.40;;;;;;5004646;28;20038;-86
2023/05/21 03:45:08;;;;;;;3.35;2.08;;;14.10;43.40;;;;;;5007096;28;20141;-88
2023/05/21 03:48:03;;;;;;;2.72;2.13;;;14.00;43.30;;;;;;5003242;28;20129;-86
2023/05/21 03:50:30;;;;;;;2.45;2.25;;;14.00;43.40;;;;;;5016516;28;20057;-87
2023/05/21 03:52:56;;;;;;;3.92;2.08;;;13.90;43.30;;;;;;4999148;28;20034;-87
2023/05/21 03:55:23;;;;;;;3.25;2.05;;;13.90;43.40;;;;;;5001153;28;20111;-85
2023/05/21 03:57:49;;;;;;;3.95;2.40;;;13.80;43.30;;;;;;5001880;28;20034;-89
2023/05/21 04:00:18;;;;;;;3.58;2.47;;;13.70;43.20;;;;;;4997923;28;20492;-90
2023/05/21 04:02:45;;;;;;;4.15;2.17;;;13.70;43.40;;;;;;5007928;28;20046;-90
2023/05/21 04:05:15;;;;;;;4.13;2.20;;;13.70;43.40;;;;;;5019052;28;20037;-89
2023/05/21 04:07:41;;;;;;;4.95;2.90;;;13.60;43.30;;;;;;5006964;28;20860;-89
2023/05/21 04:10:08;;;;;;;3.53;2.30;;;13.60;43.40;;;;;;5006442;28;20068;-90
2023/05/21 04:12:34;;;;;;;2.72;2.53;;;13.50;43.20;;;;;;4993978;28;20108;-89
2023/05/21 04:15:01;;;;;;;5.07;2.70;;;13.50;43.30;;;;;;5007036;28;20041;-88
2023/05/21 04:17:28;;;;;;;6.15;3.47;;;13.50;43.40;;;;;;5007270;28;20185;-87
2023/05/21 04:19:55;;;;;;;2.75;2.10;;;13.50;43.50;;;;;;5004095;28;20133;-86
2023/05/21 04:22:22;;;;;;;3.58;2.38;;;13.40;43.40;;;;;;4996914;28;20041;-87
2023/05/21 04:24:48;;;;;;;3.25;2.60;;;13.40;43.40;;;;;;5004804;28;20128;-88
2023/05/21 04:27:22;;;;;;;5.78;2.72;;;13.40;43.40;;;;;;4996600;28;20293;-86
2023/05/21 04:29:53;;;;;;;3.90;2.35;;;13.30;43.30;;;;;;5005938;28;20045;-86
2023/05/21 04:32:22;;;;;;;3.10;2.08;;;13.30;43.40;;;;;;5001076;28;20034;-85
2023/05/21 04:34:48;;;;;;;3.72;2.50;;;13.30;43.40;;;;;;5005729;28;20046;-84
2023/05/21 04:37:18;;;;;;;3.95;2.40;;;13.30;43.40;;;;;;5005579;28;20085;-87
2023/05/21 04:39:45;;;;;;;2.63;2.20;;;13.30;43.40;;;;;;5001411;28;20046;-87
2023/05/21 04:42:14;;;;;;;3.85;2.20;;;13.30;43.40;;;;;;5005265;28;20096;-86
2023/05/21 04:44:43;;;;;;;3.92;2.45;;;13.30;43.40;;;;;;5006173;28;20092;-87
2023/05/21 04:47:11;;;;;;;3.00;2.70;;;13.30;44.00;;;;;;4978825;28;20049;-88
2023/05/21 04:49:37;;;;;;;3.05;2.25;;;13.30;44.00;;;;;;4984855;28;20248;-88
2023/05/21 04:52:03;;;;;;;2.22;1.98;;;13.30;43.50;;;;;;4999718;28;20038;-88
2023/05/21 04:54:29;;;;;;;3.45;2.50;;;13.30;43.50;;;;;;4993864;28;20285;-85
2023/05/21 04:56:56;;;;;;;3.28;2.35;;;13.30;43.50;;;;;;4995504;28;20026;-85
2023/05/21 04:59:23;;;;;;;2.58;2.13;;;13.30;43.50;;;;;;4996546;28;20121;-85
2023/05/21 05:01:52;;;;;;;3.50;2.28;;;13.40;43.70;;;;;;4997813;28;20030;-85
2023/05/21 05:04:23;;;;;;;4.63;2.83;;;13.40;43.70;;;;;;4998013;28;20076;-86
2023/05/21 05:06:51;;;;;;;3.50;2.30;;;13.40;43.60;;;;;;4996331;28;20030;-86
2023/05/21 05:09:18;;;;;;;3.15;2.80;;;13.40;43.80;;;;;;4998925;28;20033;-87
2023/05/21 05:11:44;;;;;;;3.20;2.88;;;13.50;43.70;;;;;;4999006;28;20038;-91
2023/05/21 05:14:10;;;;;;;3.85;2.38;;;13.50;43.70;;;;;;4996725;28;20044;-88
2023/05/21 05:16:40;;;;;;;4.15;2.38;;;13.50;43.60;;;;;;5014930;28;20029;-88
2023/05/21 05:19:06;;;;;;;3.80;2.65;;;13.60;43.70;;;;;;5010626;28;20149;-89
2023/05/21 05:21:33;;;;;;;2.63;2.00;;;13.60;43.70;;;;;;5001896;28;20148;-89
2023/05/21 05:23:59;;;;;;;4.00;2.40;;;13.70;43.70;;;;;;5000437;28;20023;-89
2023/05/21 05:26:28;;;;;;;4.38;2.67;;;13.80;43.80;;;;;;5003096;28;20054;-89
2023/05/21 05:28:55;;;;;;;4.32;2.53;;;13.80;43.70;;;;;;4987936;28;20101;-89
2023/05/21 05:31:22;;;;;;;3.60;2.47;;;13.90;43.80;;;;;;5002871;28;20049;-88
2023/05/21 05:33:48;;;;;;;4.32;2.60;;;14.00;43.90;;;;;;5003747;28;20144;-87
2023/05/21 05:36:15;;;;;;;3.45;2.55;;;14.10;44.00;;;;;;5001479;28;20083;-88
2023/05/21 05:38:41;;;;;;;3.13;2.30;;;14.20;44.00;;;;;;4999231;28;20030;-88
2023/05/21 05:41:07;;;;;;;5.28;3.03;;;14.30;44.10;;;;;;4998308;28;20042;-86
2023/05/21 05:43:36;;;;;;;3.72;2.60;;;14.40;44.10;;;;;;4996520;28;20087;-86
2023/05/21 05:46:03;;;;;;;4.95;3.00;;;14.50;44.10;;;;;;5001519;28;20450;-87
2023/05/21 05:48:29;;;;;;;2.65;2.40;;;14.60;44.20;;;;;;5000014;28;20026;-88
2023/05/21 05:50:57;;;;;;;5.70;3.42;;;14.80;44.30;;;;;;4998806;28;20041;-86
2023/05/21 05:53:25;;;;;;;4.07;2.55;;;15.00;44.50;;;;;;4998436;28;20064;-85
2023/05/21 05:55:58;;;;;;;3.90;2.85;;;15.10;44.50;;;;;;4985333;28;20025;-88
2023/05/21 05:58:24;;;;;;;3.67;2.40;;;15.40;44.80;;;;;;5000731;28;20034;-87
2023/05/21 06:01:18;;;;;;;5.47;2.55;;;15.60;44.90;;;;;;4996990;28;20109;-86
2023/05/21 06:03:44;;;;;;;3.75;2.60;;;15.90;45.00;;;;;;4986366;28;20486;-89
2023/05/21 06:06:14;;;;;;;3.65;2.20;;;16.10;45.00;;;;;;4995403;28;20323;-89
2023/05/21 06:08:40;;;;;;;5.43;3.35;;;16.50;45.40;;;;;;5002181;28;20096;-86
2023/05/21 06:11:06;;;;;;;4.43;2.50;;;16.80;45.50;;;;;;4999240;28;20388;-86
2023/05/21 06:13:36;;;;;;;4.00;2.92;;;17.10;45.60;;;;;;4999397;28;20029;-87
2023/05/21 06:16:03;;;;;;;3.97;3.45;;;17.40;45.70;;;;;;5000815;28;20040;-87
2023/05/21 06:18:29;;;;;;;3.28;2.53;;;17.80;45.70;;;;;;4997986;28;20414;-88
2023/05/21 06:20:58;;;;;;;4.00;2.67;;;18.30;45.90;;;;;;5016894;28;20042;-90
2023/05/21 06:23:42;;;;;;;3.20;2.53;;;18.70;45.80;;;;;;5007639;28;20368;-93
2023/05/21 06:26:12;;;;;;;5.13;2.67;;;19.30;45.90;;;;;;5004192;28;20108;-89
2023/05/21 06:28:39;;;;;;;5.72;2.33;;;19.80;46.00;;;;;;5000646;28;20079;-88
2023/05/21 06:31:10;;;;;;;3.60;2.67;;;20.30;46.10;;;;;;4997197;28;20493;-89
2023/05/21 06:33:50;;;;;;;5.07;3.15;;;20.70;46.30;;;;;;5006390;28;20065;-84
2023/05/21 06:36:17;;;;;;;6.25;4.30;;;21.10;46.20;;;;;;5004774;28;20045;-86
2023/05/21 06:38:45;;;;;;;5.57;3.60;;;21.50;46.10;;;;;;4999565;28;20217;-83
2023/05/21 06:41:11;;;;;;;6.38;3.58;;;21.70;45.80;;;;;;5001499;28;20240;-84
2023/05/21 06:43:52;;;;;;;5.72;3.60;;;21.90;45.50;;;;;;4998487;28;20496;-82
2023/05/21 06:46:34;;;;;;;6.60;2.88;;;22.10;45.10;;;;;;5002766;28;20175;-85
2023/05/21 06:49:01;;;;;;;6.32;3.53;;;22.50;45.00;;;;;;4995780;28;20501;-81
2023/05/21 06:51:27;;;;;;;4.53;3.35;;;22.80;44.70;;;;;;5002506;28;20132;-82
2023/05/21 06:54:00;;;;;;;5.13;3.00;;;23.10;44.20;;;;;;5000983;28;20026;-85
2023/05/21 06:56:30;;;;;;;4.35;2.70;;;23.50;44.10;;;;;;5001732;28;20087;-84
2023/05/21 06:58:58;;;;;;;6.75;3.00;;;23.80;43.70;;;;;;5002088;28;20041;-90
2023/05/21 07:01:25;;;;;;;4.82;2.88;;;24.00;43.30;;;;;;5004090;28;20053;-89
2023/05/21 07:03:51;;;;;;;4.63;2.60;;;24.20;43.00;;;;;;5002641;28;20030;-82
2023/05/21 07:06:17;;;;;;;7.40;3.25;;;24.50;43.00;;;;;;4999811;28;20093;-86
2023/05/21 07:08:43;;;;;;;8.32;3.22;;;24.70;42.70;;;;;;5005003;28;20588;-86
2023/05/21 07:11:09;;;;;;;5.60;3.25;;;24.90;42.30;;;;;;5002181;28;20061;-88
2023/05/21 07:13:39;;;;;;;7.38;3.40;;;25.20;41.90;;;;;;5013214;28;20041;-85
2023/05/21 07:16:06;;;;;;;4.40;3.45;;;25.40;41.40;;;;;;5002358;28;20057;-86
2023/05/21 07:18:34;;;;;;;3.53;2.92;;;25.60;40.90;;;;;;4999628;28;20041;-84
2023/05/21 07:21:00;;;;;;;5.28;3.15;;;25.80;40.60;;;;;;4994215;28;20260;-84
2023/05/21 07:23:27;;;;;;;3.95;2.90;;;25.90;40.90;;;;;;5003402;28;20042;-83
2023/05/21 07:25:56;;;;;;;4.68;3.08;;;26.00;39.90;;;;;;5006084;28;20481;-80
2023/05/21 07:28:22;;;;;;;7.90;3.85;;;26.00;39.80;;;;;;5002398;28;20033;-81
2023/05/21 07:30:48;;;;;;;7.65;3.28;;;25.80;40.00;;;;;;4990929;28;20029;-81
2023/05/21 07:33:25;;;;;;;6.47;3.63;;;25.60;40.30;;;;;;4995128;28;20050;-80
2023/05/21 07:35:52;;;;;;;5.13;2.85;;;25.40;40.60;;;;;;4999715;28;21151;-81
2023/05/21 07:38:21;;;;;;;5.18;2.85;;;25.20;40.60;;;;;;4995328;28;20322;-80
2023/05/21 07:40:47;;;;;;;4.45;3.10;;;25.40;40.40;;;;;;4996663;28;20111;-81
2023/05/21 07:43:14;;;;;;;6.55;3.40;;;25.70;39.60;;;;;;4997252;28;20449;-81
2023/05/21 07:45:41;;;;;;;6.38;3.20;;;26.00;38.80;;;;;;4995061;28;20038;-80
2023/05/21 07:48:07;;;;;;;5.93;3.30;;;26.20;38.30;;;;;;4993987;28;20037;-80
2023/05/21 07:50:37;;;;;;;4.97;3.10;;;26.20;38.10;;;;;;5002140;28;20041;-80
2023/05/21 07:53:03;;;;;;;5.88;2.67;;;26.20;38.00;;;;;;4990566;28;20029;-81
2023/05/21 07:55:31;;;;;;;5.28;2.55;;;26.10;38.10;;;;;;5000339;28;20396;-81
2023/05/21 07:57:57;;;;;;;4.47;3.05;;;26.10;38.20;;;;;;4999148;28;20057;-81
2023/05/21 08:00:27;;;;;;;6.18;3.35;;;26.10;38.20;;;;;;4996563;28;20057;-80
2023/05/21 08:02:56;;;;;;;5.40;3.05;;;26.00;38.20;;;;;;4996803;28;20048;-80
2023/05/21 08:05:25;;;;;;;3.92;2.78;;;25.90;38.20;;;;;;5015058;28;20046;-81
2023/05/21 08:07:51;;;;;;;6.70;3.00;;;25.70;38.10;;;;;;4999416;28;20128;-80
2023/05/21 08:10:18;;;;;;;4.55;3.00;;;25.50;38.30;;;;;;5000184;28;20073;-80
2023/05/21 08:12:44;;;;;;;8.88;3.33;;;25.20;38.50;;;;;;5000690;28;20042;-80
2023/05/21 08:15:14;;;;;;;3.53;2.55;;;24.90;38.70;;;;;;4999616;28;20428;-83
2023/05/21 08:17:44;;;;;;;6.88;3.35;;;24.60;38.50;;;;;;4994891;28;20041;-84
2023/05/21 08:20:12;;;;;;;3.58;2.80;;;24.40;38.50;;;;;;4998539;28;20176;-83
2023/05/21 08:22:38;;;;;;;6.30;2.92;;;24.20;38.40;;;;;;4994788;28;20037;-84
2023/05/21 08:25:14;;;;;;;5.80;3.20;;;23.90;38.10;;;;;;5004196;28;20050;-85
2023/05/21 08:27:41;;;;;;;4.32;3.03;;;23.80;38.20;;;;;;4979542;28;20080;-83
2023/05/21 08:30:10;;;;;;;4.90;2.90;;;23.60;38.00;;;;;;4998739;28;20030;-82
2023/05/21 08:32:36;;;;;;;4.25;2.70;;;23.50;38.00;;;;;;4994653;28;20037;-83
2023/05/21 08:35:03;;;;;;;4.88;3.00;;;23.50;38.20;;;;;;5003243;28;20452;-81
2023/05/21 08:37:58;;;;;;;7.50;3.53;;;23.30;37.90;;;;;;4982344;28;20485;-81
2023/05/21 08:40:50;;;;;;;5.10;3.40;;;23.20;37.90;;;;;;4993418;28;20064;-81
2023/05/21 08:43:16;;;;;;;4.03;3.00;;;23.10;37.90;;;;;;4992702;28;20285;-83
2023/05/21 08:45:50;;;;;;;4.05;3.13;;;23.00;37.90;;;;;;5013933;28;20099;-84
2023/05/21 08:48:22;;;;;;;5.13;3.40;;;23.00;37.90;;;;;;5000565;28;20485;-81
2023/05/21 08:50:52;;;;;;;4.93;2.88;;;23.00;38.00;;;;;;5000937;28;20048;-79
2023/05/21 08:53:26;;;;;;;4.78;2.78;;;22.90;38.00;;;;;;5000647;28;20488;-85
2023/05/21 08:56:00;;;;;;;8.77;3.50;;;22.80;37.90;;;;;;4998560;28;20579;-87
2023/05/21 08:58:44;;;;;;;5.32;3.20;;;22.80;38.10;;;;;;4999175;28;20041;-81
2023/05/21 09:01:11;;;;;;;8.88;3.60;;;22.80;38.10;;;;;;4998921;28;20510;-84
2023/05/21 09:03:45;;;;;;;6.80;3.35;;;22.80;38.10;;;;;;4998761;28;20438;-86
2023/05/21 09:06:15;;;;;;;6.93;3.15;;;22.80;38.10;;;;;;4993177;28;20112;-84
2023/05/21 09:08:47;;;;;;;8.63;3.60;;;22.90;38.30;;;;;;4998078;28;20112;-84
2023/05/21 09:11:41;;;;;;;6.03;3.42;;;22.90;38.20;;;;;;4996084;28;20046;-86
2023/05/21 09:14:10;;;;;;;6.28;3.92;;;22.90;38.20;;;;;;4996751;28;20060;-82
2023/05/21 09:17:00;;;;;;;5.80;3.17;;;22.90;38.30;;;;;;4988974;28;20046;-80
2023/05/21 09:19:27;;;;;;;5.40;4.32;;;22.90;38.30;;;;;;5013310;28;20441;-83
2023/05/21 09:22:01;;;;;;;4.95;3.58;;;22.90;38.40;;;;;;4991265;28;20034;-84
2023/05/21 09:24:33;;;;;;;5.32;3.17;;;23.00;38.60;;;;;;4985415;28;20026;-87
2023/05/21 09:26:59;;;;;;;5.28;3.63;;;23.00;38.60;;;;;;4997140;28;20173;-86
2023/05/21 09:29:26;;;;;;;4.63;3.80;;;23.00;38.60;;;;;;5002029;28;20510;-86
2023/05/21 09:31:53;;;;;;;6.40;4.68;;;23.00;38.60;;;;;;4998949;28;20101;-86
2023/05/21 09:34:20;;;;;;;5.95;3.38;;;23.00;38.70;;;;;;4992377;28;20513;-87
2023/05/21 09:36:48;;;;;;;5.28;3.28;;;23.00;38.70;;;;;;4998150;28;20092;-86
2023/05/21 09:39:28;;;;;;;5.78;3.60;;;23.10;38.80;;;;;;4986625;28;20393;-87
2023/05/21 09:41:58;;;;;;;5.25;3.38;;;23.10;38.70;;;;;;4989225;28;20025;-88
2023/05/21 09:44:25;;;;;;;4.60;3.00;;;23.20;38.80;;;;;;4994523;28;20034;-85
2023/05/21 09:46:57;;;;;;;5.13;3.67;;;23.20;38.80;;;;;;4995487;28;20042;-90
2023/05/21 09:49:25;;;;;;;5.80;3.17;;;23.20;38.70;;;;;;5001488;28;20041;-87
2023/05/21 09:51:55;;;;;;;8.88;3.40;;;23.30;38.90;;;;;;4978251;28;20038;-83
2023/05/21 09:54:23;;;;;;;4.72;3.13;;;23.40;39.10;;;;;;5002341;28;20069;-85
2023/05/21 09:56:53;;;;;;;4.45;3.10;;;23.40;39.10;;;;;;4998565;28;20056;-78
2023/05/21 09:59:20;;;;;;;5.97;3.72;;;23.50;39.40;;;;;;4997416;28;20288;-78
2023/05/21 10:01:48;;;;;;;7.43;3.95;;;23.60;39.50;;;;;;4994182;28;20056;-78
2023/05/21 10:04:15;;;;;;;19.10;4.10;;;23.70;39.60;;;;;;5001475;28;20189;-78
2023/05/21 10:06:46;;;;;;;6.50;3.28;;;23.90;39.80;;;;;;4999154;28;20556;-78
2023/05/21 10:09:17;;;;;;;5.25;3.40;;;24.00;39.80;;;;;;5008117;28;20243;-80
2023/05/21 10:11:44;;;;;;;6.07;3.47;;;24.10;39.80;;;;;;5003386;28;20072;-81
2023/05/21 10:14:24;;;;;;;5.53;3.45;;;24.10;39.70;;;;;;4994577;28;20030;-78
2023/05/21 10:16:53;;;;;;;5.93;3.28;;;24.10;39.70;;;;;;4991345;28;20042;-80
2023/05/21 10:19:20;;;;;;;6.18;3.05;;;24.20;39.80;;;;;;4993701;28;20089;-79
2023/05/21 10:21:51;;;;;;;6.13;3.13;;;24.30;39.80;;;;;;4992585;28;20321;-78
2023/05/21 10:24:26;;;;;;;5.40;3.50;;;24.40;39.90;;;;;;4993514;28;20080;-80
2023/05/21 10:26:53;;;;;;;6.35;3.88;;;24.50;40.00;;;;;;4998042;28;20045;-78
2023/05/21 10:29:22;;;;;;;3.83;3.13;;;24.50;39.90;;;;;;4995018;28;20049;-80
2023/05/21 10:31:50;;;;;;;3.80;3.10;;;24.60;40.00;;;;;;4994634;28;20034;-80
2023/05/21 10:34:18;;;;;;;3.67;3.20;;;24.60;39.90;;;;;;4987292;28;20030;-82
2023/05/21 10:36:49;;;;;;;3.83;2.55;;;24.70;40.00;;;;;;4986386;28;20042;-78
2023/05/21 10:39:18;;;;;;;9.48;3.17;;;24.80;40.20;;;;;;4988790;28;20037;-94
2023/05/21 10:42:08;;;;;;;8.38;2.90;;;24.90;40.20;;;;;;5000957;28;20041;-87
2023/05/21 10:44:52;;;;;;;8.48;2.92;;;24.90;40.20;;;;;;5000056;28;20038;-87
2023/05/21 10:48:06;;;;;;;9.75;3.55;;;25.10;40.50;;;;;;4994951;28;20058;-84
2023/05/21 10:51:20;;;;;;;5.05;3.25;;;25.10;40.30;;;;;;4963446;28;20046;-83
2023/05/21 10:54:03;;;;;;;3.80;3.10;;;25.20;40.30;;;;;;4996982;28;20632;-82
2023/05/21 10:56:45;;;;;;;3.63;2.70;;;25.40;40.20;;;;;;4997612;28;20093;-85
2023/05/21 10:59:34;;;;;;;5.82;3.33;;;25.50;40.10;;;;;;4999708;28;20046;-85
2023/05/21 11:02:02;;;;;;;5.22;2.55;;;25.60;40.00;;;;;;4995402;28;20202;-86
2023/05/21 11:04:28;;;;;;;4.55;3.25;;;25.70;39.80;;;;;;4993699;28;20037;-83
2023/05/21 11:06:56;;;;;;;4.03;3.15;;;25.80;39.80;;;;;;4993723;28;20463;-85
2023/05/21 11:09:26;;;;;;;4.05;3.63;;;25.80;39.70;;;;;;4997614;28;20030;-87
2023/05/21 11:12:03;;;;;;;5.38;4.20;;;25.90;39.70;;;;;;4996586;28;20091;-85
2023/05/21 11:14:37;;;;;;;13.27;10.13;;;26.00;39.70;;;;;;4994300;28;20125;-85
2023/05/21 11:17:14;;;;;;;9.05;6.20;;;26.10;39.80;;;;;;4996021;28;20042;-85
2023/05/21 11:19:50;;;;;;;7.35;5.75;;;26.20;39.60;;;;;;4990893;28;20044;-86
2023/05/21 11:22:23;;;;;;;9.88;5.85;;;26.30;39.40;;;;;;4991935;28;20046;-83
2023/05/21 11:24:51;;;;;;;11.00;6.75;;;26.40;39.40;;;;;;5000355;28;20061;-86
2023/05/21 11:27:41;;;;;;;9.00;6.53;;;26.50;39.40;;;;;;5013013;28;20188;-86
2023/05/21 11:30:09;;;;;;;7.93;6.15;;;26.60;39.60;;;;;;5012220;28;20113;-86
2023/05/21 11:33:00;;;;;;;6.78;6.10;;;26.70;39.70;;;;;;5014812;28;20045;-85
2023/05/21 11:35:28;;;;;;;9.35;5.78;;;26.90;39.70;;;;;;5030423;28;20084;-87
2023/05/21 11:37:57;;;;;;;8.40;5.75;;;26.90;39.80;;;;;;5030966;28;20476;-86
2023/05/21 11:40:29;;;;;;;7.75;5.55;;;27.10;39.90;;;;;;5013415;28;20041;-85
2023/05/21 11:42:56;;;;;;;5.88;5.28;;;27.30;39.80;;;;;;5012954;28;20026;-86
2023/05/21 11:45:27;;;;;;;7.88;5.03;;;27.40;39.70;;;;;;5001463;28;20512;-86
2023/05/21 11:47:54;;;;;;;6.80;4.90;;;27.60;39.60;;;;;;4996191;28;20577;-86
2023/05/21 11:50:24;;;;;;;9.48;5.32;;;27.80;39.50;;;;;;5001810;28;20446;-87
2023/05/21 11:52:51;;;;;;;8.25;5.25;;;28.00;39.40;;;;;;4996769;28;20053;-83
2023/05/21 11:55:24;;;;;;;4.85;3.60;;;28.20;39.20;;;;;;4998372;28;20030;-83
2023/05/21 11:57:57;;;;;;;5.28;3.80;;;28.30;38.80;;;;;;4991550;28;20040;-82
2023/05/21 12:00:23;;;;;;;;;;;28.30;38.50;;;;;;4997913;28;20069;-83
2023/05/21 12:02:54;;;;;;;4.78;3.13;;;28.30;38.50;;;;;;4995622;28;19913;-86
2023/05/21 12:05:20;;;;;;;10.00;3.33;;;28.40;38.40;;;;;;5008307;28;20100;-81
2023/05/21 12:07:48;;;;;;;7.03;3.55;;;28.50;38.10;;;;;;4994732;28;20093;-82
2023/05/21 12:10:21;;;;;;;5.47;3.83;;;28.60;37.90;;;;;;4995823;28;20036;-84
2023/05/21 12:12:48;;;;;;;5.60;3.20;;;28.60;37.70;;;;;;4995093;28;20038;-83
2023/05/21 12:15:17;;;;;;;7.55;4.13;;;28.60;37.70;;;;;;5002459;28;20147;-81
2023/05/21 12:17:51;;;;;;;4.90;2.95;;;28.50;37.60;;;;;;4993538;28;20124;-82
2023/05/21 12:20:17;;;;;;;5.32;3.50;;;28.50;37.60;;;;;;4993263;28;20129;-79
2023/05/21 12:22:43;;;;;;;8.27;3.60;;;28.60;37.70;;;;;;4993974;28;20033;-82
2023/05/21 12:25:12;;;;;;;6.10;3.63;;;28.70;37.70;;;;;;4986336;28;20792;-80
2023/05/21 12:27:40;;;;;;;3.47;2.72;;;28.80;37.60;;;;;;4992181;28;20032;-80
2023/05/21 12:30:07;;;;;;;5.47;2.95;;;28.90;37.40;;;;;;4993008;28;20042;-78
2023/05/21 12:32:34;;;;;;;5.63;2.80;;;29.00;37.10;;;;;;4995754;28;20057;-78
2023/05/21 12:35:00;;;;;;;3.85;2.40;;;29.10;37.00;;;;;;4992894;28;20088;-78
2023/05/21 12:37:30;;;;;;;4.05;2.22;;;29.10;36.70;;;;;;5001969;28;20038;-79
2023/05/21 12:39:59;;;;;;;3.42;2.50;;;29.10;36.60;;;;;;4991079;28;20172;-80
2023/05/21 12:42:29;;;;;;;2.72;2.22;;;29.20;36.40;;;;;;4986901;28;20296;-80
2023/05/21 12:44:56;;;;;;;2.83;2.15;;;29.20;36.20;;;;;;4990858;28;20049;-78
2023/05/21 12:47:26;;;;;;;2.40;2.20;;;29.30;36.10;;;;;;4992227;28;20137;-79
2023/05/21 12:50:00;;;;;;;5.20;2.65;;;29.30;35.90;;;;;;4989471;28;20026;-79
2023/05/21 12:52:27;;;;;;;3.97;2.10;;;29.40;35.80;;;;;;4997808;28;20033;-79
2023/05/21 12:55:01;;;;;;;3.15;2.30;;;29.50;35.60;;;;;;4994547;28;20048;-80
2023/05/21 12:57:37;;;;;;;4.47;2.45;;;29.70;35.50;;;;;;4984542;28;20041;-81
2023/05/21 13:00:08;;;;;;;2.00;1.67;;;29.80;35.30;;;;;;4989419;28;20048;-81
2023/05/21 13:02:42;;;;;;;4.43;1.98;;;29.90;35.30;;;;;;4994113;28;20053;-81